Time;durP1;ratioP1;P1;durP2;ratioP2;P2;SDS_P1;SDS_P2;PMS_P1;PMS_P2;Temp;Humidity;BMP_temperature;BMP_pressure;BME280_temperature;BME280_humidity;BME280_pressure;Samples;Min_cycle;Max_cycle;Signal;HPM_P1;HPM_P2
2021/08/06 00:01:58;;;;;;;;;;;;;;;26.50;61.79;99584.97;5034908;28;1389;-55
2021/08/06 00:04:24;;;;;;;;;;;;;;;26.51;61.40;99580.38;5034930;28;1076;-55
2021/08/06 00:06:50;;;;;;;;;;;;;;;26.48;61.32;99605.19;5035207;28;1000;-55
2021/08/06 00:09:17;;;;;;;;;;;;;;;26.52;61.45;99620.84;5034818;28;1088;-55
2021/08/06 00:11:43;;;;;;;;;;;;;;;26.53;61.64;99618.97;5035122;28;989;-56
2021/08/06 00:14:10;;;;;;;;;;;;;;;26.56;61.68;99624.78;5035006;28;1911;-56
2021/08/06 00:16:36;;;;;;;;;;;;;;;26.55;61.82;99625.81;5035038;28;1080;-56
2021/08/06 00:19:04;;;;;;;;;;;;;;;26.52;61.32;99612.72;5034656;28;1019;-56
2021/08/06 00:21:31;;;;;;;;;;;;;;;26.49;61.26;99613.13;5035349;28;959;-55
2021/08/06 00:23:57;;;;;;;;;;;;;;;26.49;61.33;99615.00;5034920;28;1004;-55
2021/08/06 00:26:24;;;;;;;;;;;;;;;26.52;61.78;99610.00;5034897;28;1050;-55
2021/08/06 00:28:50;;;;;;;;;;;;;;;26.52;61.84;99618.13;5034530;28;1099;-55
2021/08/06 00:31:17;;;;;;;;;;;;;;;26.49;61.19;99605.00;5034384;28;1107;-56
2021/08/06 00:33:43;;;;;;;;;;;;;;;26.55;61.75;99616.88;5034653;28;1973;-55
2021/08/06 00:36:11;;;;;;;;;;;;;;;26.49;61.83;99615.84;5034410;28;1099;-56
2021/08/06 00:38:37;;;;;;;;;;;;;;;26.54;60.95;99620.59;5034675;28;1003;-56
2021/08/06 00:41:04;;;;;;;;;;;;;;;26.53;61.63;99610.81;5034634;28;999;-56
2021/08/06 00:43:31;;;;;;;;;;;;;;;26.49;61.68;99612.31;5033592;28;1103;-56
2021/08/06 00:45:58;;;;;;;;;;;;;;;26.52;61.64;99618.13;5034511;28;1042;-55
2021/08/06 00:48:25;;;;;;;;;;;;;;;26.47;61.66;99590.00;5034463;28;1130;-56
2021/08/06 00:50:51;;;;;;;;;;;;;;;26.52;61.70;99614.56;5034375;28;976;-56
2021/08/06 00:53:19;;;;;;;;;;;;;;;26.51;61.56;99611.03;5034380;28;988;-55
2021/08/06 00:55:46;;;;;;;;;;;;;;;26.49;61.68;99598.75;5034110;28;1972;-56
2021/08/06 00:58:12;;;;;;;;;;;;;;;26.48;61.58;99597.06;5034279;28;1019;-55
2021/08/06 01:00:39;;;;;;;;;;;;;;;26.49;61.03;99602.28;5033969;28;1163;-55
2021/08/06 01:03:06;;;;;;;;;;;;;;;26.50;61.48;99616.66;5033854;28;1414;-56
2021/08/06 01:05:34;;;;;;;;;;;;;;;26.49;61.57;99613.13;5034162;28;1079;-55
2021/08/06 01:08:05;;;;;;;;;;;;;;;26.47;61.85;99598.13;5034029;28;1094;-56
2021/08/06 01:10:37;;;;;;;;;;;;;;;26.46;61.41;99597.31;5033770;28;1104;-55
2021/08/06 01:13:07;;;;;;;;;;;;;;;26.50;61.77;99603.97;5033749;28;1095;-55
2021/08/06 01:15:35;;;;;;;;;;;;;;;26.46;61.73;99586.47;5033986;28;1882;-56
2021/08/06 01:18:04;;;;;;;;;;;;;;;26.52;61.68;99596.44;5033976;28;1059;-56
2021/08/06 01:20:32;;;;;;;;;;;;;;;26.50;62.02;99587.69;5033904;28;1105;-56
2021/08/06 01:23:01;;;;;;;;;;;;;;;26.48;61.47;99599.78;5033911;28;1063;-56
2021/08/06 01:25:39;;;;;;;;;;;;;;;26.50;61.95;99612.09;5033579;28;1171;-56
2021/08/06 01:28:05;;;;;;;;;;;;;;;26.48;61.86;99616.91;5033536;28;1132;-55
2021/08/06 01:30:32;;;;;;;;;;;;;;;26.48;61.75;99610.63;5033502;28;1115;-55
2021/08/06 01:32:59;;;;;;;;;;;;;;;26.49;61.57;99613.13;5033579;28;1155;-55
2021/08/06 01:35:25;;;;;;;;;;;;;;;26.51;61.27;99605.59;5033684;28;1907;-55
2021/08/06 01:37:53;;;;;;;;;;;;;;;26.45;61.52;99605.63;5033699;28;1152;-55
2021/08/06 01:40:19;;;;;;;;;;;;;;;26.46;61.30;99608.16;5033397;28;1072;-56
2021/08/06 01:42:50;;;;;;;;;;;;;;;26.50;61.91;99614.81;5033592;28;1042;-55
2021/08/06 01:45:20;;;;;;;;;;;;;;;26.46;61.60;99619.00;5033553;28;988;-55
2021/08/06 01:47:48;;;;;;;;;;;;;;;26.47;61.33;99620.63;5033319;28;1107;-55
2021/08/06 01:50:16;;;;;;;;;;;;;;;26.51;61.90;99615.63;5033312;28;1087;-55
2021/08/06 01:52:47;;;;;;;;;;;;;;;26.47;61.50;99593.53;5033385;28;1023;-56
2021/08/06 01:55:14;;;;;;;;;;;;;;;26.48;61.68;99589.78;5034935;28;1973;-55
2021/08/06 01:57:42;;;;;;;;;;;;;;;26.49;61.77;99596.84;5037553;28;1000;-55
2021/08/06 02:02:54;;;;;;;;;;;;;;;26.48;61.62;99618.75;5074707;23;1516;-54
2021/08/06 02:05:21;;;;;;;;;;;;;;;26.46;61.17;99621.69;5057264;28;1069;-55
2021/08/06 02:07:48;;;;;;;;;;;;;;;26.43;61.65;99632.94;5057410;28;1051;-54
2021/08/06 02:10:15;;;;;;;;;;;;;;;26.49;61.86;99634.81;5056802;28;1003;-54
2021/08/06 02:12:42;;;;;;;;;;;;;;;26.44;61.65;99626.50;5057354;28;990;-54
2021/08/06 02:15:09;;;;;;;;;;;;;;;26.44;61.30;99640.06;5056698;28;1965;-54
2021/08/06 02:17:36;;;;;;;;;;;;;;;26.45;61.46;99660.69;5056629;28;1079;-54
2021/08/06 02:20:05;;;;;;;;;;;;;;;26.45;61.56;99659.84;5057298;28;1077;-54
2021/08/06 02:22:32;;;;;;;;;;;;;;;26.51;61.82;99654.41;5056401;28;1135;-54
2021/08/06 02:24:59;;;;;;;;;;;;;;;26.46;61.83;99659.66;5057122;28;1097;-54
2021/08/06 02:27:26;;;;;;;;;;;;;;;26.48;62.16;99672.97;5056784;28;1002;-54
2021/08/06 02:29:53;;;;;;;;;;;;;;;26.46;61.66;99656.94;5056572;28;1019;-54
2021/08/06 02:32:20;;;;;;;;;;;;;;;26.43;61.65;99665.47;5057098;28;995;-54
2021/08/06 02:34:46;;;;;;;;;;;;;;;26.46;61.72;99675.06;5056439;28;1906;-54
2021/08/06 02:37:14;;;;;;;;;;;;;;;26.46;61.99;99699.47;5056124;28;1106;-54
2021/08/06 02:39:41;;;;;;;;;;;;;;;26.48;62.04;99741.59;5056589;28;1059;-54
2021/08/06 02:42:07;;;;;;;;;;;;;;;26.47;61.30;99774.34;5056004;28;1103;-54
2021/08/06 02:44:35;;;;;;;;;;;;;;;26.46;61.64;99780.78;5056038;28;1095;-54
2021/08/06 02:47:02;;;;;;;;;;;;;;;26.49;61.84;99756.81;5056563;28;1150;-54
2021/08/06 02:49:33;;;;;;;;;;;;;;;26.43;61.32;99706.16;5055865;28;1099;-54
2021/08/06 02:51:59;;;;;;;;;;;;;;;26.48;61.52;99659.41;5056073;28;1024;-54
2021/08/06 02:54:27;;;;;;;;;;;;;;;26.43;61.75;99657.34;5055885;28;1902;-54
2021/08/06 02:56:54;;;;;;;;;;;;;;;26.43;61.76;99616.69;5056035;28;1094;-54
2021/08/06 02:59:20;;;;;;;;;;;;;;;26.45;61.29;99552.25;5056053;28;1079;-54
2021/08/06 03:01:47;;;;;;;;;;;;;;;26.43;61.95;99473.03;5054835;28;1485;-54
2021/08/06 03:04:13;;;;;;;;;;;;;;;26.41;62.16;99320.63;5055879;28;1080;-54
2021/08/06 03:06:40;;;;;;;;;;;;;;;26.44;61.25;99381.69;5055380;28;1139;-54
2021/08/06 03:09:06;;;;;;;;;;;;;;;26.38;62.01;99310.19;5055615;28;1034;-54
2021/08/06 03:11:34;;;;;;;;;;;;;;;26.39;61.98;99304.56;5055929;28;1002;-54
2021/08/06 03:14:01;;;;;;;;;;;;;;;26.44;61.99;99371.69;5056058;28;1006;-54
2021/08/06 03:16:27;;;;;;;;;;;;;;;26.45;61.87;99422.13;5055825;28;1902;-54
2021/08/06 03:18:54;;;;;;;;;;;;;;;26.45;62.03;99453.84;5055917;28;1011;-54
2021/08/06 03:21:20;;;;;;;;;;;;;;;26.44;62.08;99493.69;5055801;28;1011;-54
2021/08/06 03:23:47;;;;;;;;;;;;;;;26.49;62.12;99555.38;5055500;28;1163;-54
2021/08/06 03:26:13;;;;;;;;;;;;;;;26.48;61.92;99567.25;5055614;28;1091;-54
2021/08/06 03:28:41;;;;;;;;;;;;;;;26.47;61.40;99582.69;5055121;28;1072;-54
2021/08/06 03:31:08;;;;;;;;;;;;;;;26.49;62.06;99607.69;5055162;28;1174;-54
2021/08/06 03:33:34;;;;;;;;;;;;;;;26.45;61.64;99597.50;5055510;28;1076;-54
2021/08/06 03:36:00;;;;;;;;;;;;;;;26.43;62.14;99592.28;5055240;28;1906;-54
2021/08/06 03:38:27;;;;;;;;;;;;;;;26.42;62.28;99590.63;5055459;28;1177;-54
2021/08/06 03:40:54;;;;;;;;;;;;;;;26.42;61.76;99579.78;5055531;28;1007;-54
2021/08/06 03:43:20;;;;;;;;;;;;;;;26.47;62.33;99581.88;5055158;28;1072;-54
2021/08/06 03:45:48;;;;;;;;;;;;;;;26.44;61.95;99566.00;5055483;28;1058;-54
2021/08/06 03:48:15;;;;;;;;;;;;;;;26.42;61.96;99549.13;5055035;28;1054;-54
2021/08/06 03:50:42;;;;;;;;;;;;;;;26.41;61.65;99553.72;5054695;28;1135;-54
2021/08/06 03:53:09;;;;;;;;;;;;;;;26.45;62.15;99576.66;5055389;28;1071;-54
2021/08/06 03:55:35;;;;;;;;;;;;;;;26.45;62.00;99594.81;5054974;28;1906;-54
2021/08/06 03:58:03;;;;;;;;;;;;;;;26.44;62.22;99625.66;5055030;28;1003;-54
2021/08/06 04:00:32;;;;;;;;;;;;;;;26.42;61.72;99639.41;5054988;28;1122;-54
2021/08/06 04:03:00;;;;;;;;;;;;;;;26.43;62.12;99640.25;5053263;28;1513;-54
2021/08/06 04:05:26;;;;;;;;;;;;;;;26.45;61.97;99628.16;5054667;28;1055;-54
2021/08/06 04:07:53;;;;;;;;;;;;;;;26.43;62.07;99616.69;5055006;28;999;-54
2021/08/06 04:10:20;;;;;;;;;;;;;;;26.47;61.89;99623.34;5054378;28;1087;-54
2021/08/06 04:12:48;;;;;;;;;;;;;;;26.43;62.08;99613.16;5055196;28;1073;-54
2021/08/06 04:15:15;;;;;;;;;;;;;;;26.43;61.48;99613.97;5054699;28;1906;-54
2021/08/06 04:17:41;;;;;;;;;;;;;;;26.49;61.99;99634.00;5053512;28;965;-54
2021/08/06 04:20:10;;;;;;;;;;;;;;;26.47;62.11;99636.91;5054970;28;1080;-54
2021/08/06 04:22:37;;;;;;;;;;;;;;;26.47;61.98;99639.63;5054462;28;994;-54
2021/08/06 04:25:03;;;;;;;;;;;;;;;26.47;62.02;99639.63;5054550;28;1101;-54
2021/08/06 04:27:30;;;;;;;;;;;;;;;26.48;62.00;99638.59;5054693;28;1034;-54
2021/08/06 04:29:56;;;;;;;;;;;;;;;26.49;61.63;99651.09;5054228;28;1002;-54
2021/08/06 04:32:23;;;;;;;;;;;;;;;26.50;61.57;99650.03;5054467;28;1084;-55
2021/08/06 04:34:49;;;;;;;;;;;;;;;26.47;62.31;99666.72;5054484;28;1014;-54
2021/08/06 04:37:17;;;;;;;;;;;;;;;26.44;61.80;99659.03;5054068;28;1971;-54
2021/08/06 04:39:43;;;;;;;;;;;;;;;26.47;61.62;99669.44;5054180;28;1083;-54
2021/08/06 04:42:10;;;;;;;;;;;;;;;26.44;62.21;99659.03;5054093;28;1092;-54
2021/08/06 04:44:38;;;;;;;;;;;;;;;26.48;62.26;99672.97;5054014;28;1058;-54
2021/08/06 04:47:05;;;;;;;;;;;;;;;26.49;62.07;99682.78;5054458;28;1081;-54
2021/08/06 04:49:31;;;;;;;;;;;;;;;26.45;61.79;99666.09;5053911;28;1007;-54
2021/08/06 04:51:58;;;;;;;;;;;;;;;26.46;62.04;99694.03;5053739;28;1149;-54
2021/08/06 04:54:26;;;;;;;;;;;;;;;26.45;61.83;99676.94;5054052;28;1073;-54
2021/08/06 04:56:54;;;;;;;;;;;;;;;26.48;62.31;99684.66;5053687;28;1987;-54
2021/08/06 04:59:20;;;;;;;;;;;;;;;26.47;61.91;99685.69;5053991;28;1074;-54
2021/08/06 05:01:47;;;;;;;;;;;;;;;26.46;62.11;99678.63;5052201;28;1410;-54
2021/08/06 05:04:13;;;;;;;;;;;;;;;26.51;62.42;99686.94;5053661;28;1069;-54
2021/08/06 05:06:40;;;;;;;;;;;;;;;26.44;61.78;99675.28;5053896;28;1111;-54
2021/08/06 05:09:06;;;;;;;;;;;;;;;26.46;61.81;99684.06;5053394;28;1107;-54
2021/08/06 05:11:35;;;;;;;;;;;;;;;26.44;62.38;99694.28;5053604;28;1040;-54
2021/08/06 05:14:01;;;;;;;;;;;;;;;26.48;62.00;99698.22;5053970;28;1133;-54
2021/08/06 05:16:28;;;;;;;;;;;;;;;26.45;61.92;99693.22;5053121;28;1887;-54
2021/08/06 05:18:54;;;;;;;;;;;;;;;26.44;62.22;99678.00;5053539;28;1084;-54
2021/08/06 05:21:21;;;;;;;;;;;;;;;26.43;61.98;99673.63;5053718;28;1092;-54
2021/08/06 05:23:47;;;;;;;;;;;;;;;26.44;61.78;99702.41;5053389;28;1070;-54
2021/08/06 05:26:14;;;;;;;;;;;;;;;26.44;62.38;99680.72;5053416;28;1134;-54
2021/08/06 05:28:41;;;;;;;;;;;;;;;26.47;61.88;99679.44;5053273;28;1076;-54
2021/08/06 05:31:08;;;;;;;;;;;;;;;26.53;62.29;99693.00;5052898;28;1111;-54
2021/08/06 05:33:34;;;;;;;;;;;;;;;26.50;62.45;99684.44;5053430;28;1076;-54
2021/08/06 05:36:01;;;;;;;;;;;;;;;26.49;61.52;99694.47;5052878;28;1905;-54
2021/08/06 05:38:27;;;;;;;;;;;;;;;26.50;62.15;99700.69;5053329;28;995;-54
2021/08/06 05:40:54;;;;;;;;;;;;;;;26.48;62.16;99700.94;5053520;28;1018;-54
2021/08/06 05:43:20;;;;;;;;;;;;;;;26.52;62.14;99696.75;5053046;28;1077;-54
2021/08/06 05:45:48;;;;;;;;;;;;;;;26.51;62.15;99703.22;5053383;28;1079;-54
2021/08/06 05:48:17;;;;;;;;;;;;;;;26.51;62.04;99696.97;5053435;28;1085;-54
2021/08/06 05:50:44;;;;;;;;;;;;;;;26.49;62.04;99682.78;5053103;28;1074;-54
2021/08/06 05:53:10;;;;;;;;;;;;;;;26.53;62.25;99693.00;5052999;28;1115;-54
2021/08/06 05:55:37;;;;;;;;;;;;;;;26.47;62.24;99680.28;5052831;28;1908;-54
2021/08/06 05:58:03;;;;;;;;;;;;;;;26.48;61.88;99698.22;5052951;28;1075;-54
2021/08/06 06:00:29;;;;;;;;;;;;;;;26.50;62.04;99712.41;5053480;28;1002;-54
2021/08/06 06:02:57;;;;;;;;;;;;;;;26.50;62.41;99717.81;5051527;28;1527;-54
2021/08/06 06:05:24;;;;;;;;;;;;;;;26.50;61.60;99722.41;5052761;28;1130;-54
2021/08/06 06:07:50;;;;;;;;;;;;;;;26.48;62.51;99725.34;5053293;28;997;-54
2021/08/06 06:10:18;;;;;;;;;;;;;;;26.46;62.35;99719.28;5052902;28;1077;-54
2021/08/06 06:12:45;;;;;;;;;;;;;;;26.45;61.80;99714.91;5053169;28;994;-54
2021/08/06 06:15:11;;;;;;;;;;;;;;;26.45;62.26;99725.75;5052829;28;1102;-54
2021/08/06 06:17:38;;;;;;;;;;;;;;;26.47;61.94;99763.50;5052696;28;1926;-54
2021/08/06 06:20:07;;;;;;;;;;;;;;;26.48;62.07;99746.16;5053215;28;1081;-54
2021/08/06 06:22:33;;;;;;;;;;;;;;;26.50;62.43;99739.50;5052567;28;1080;-54
2021/08/06 06:25:00;;;;;;;;;;;;;;;26.51;62.20;99749.31;5052394;28;1142;-54
2021/08/06 06:27:26;;;;;;;;;;;;;;;26.50;62.12;99725.97;5053286;28;1015;-54
2021/08/06 06:29:53;;;;;;;;;;;;;;;26.50;62.01;99744.94;5052550;28;1142;-54
2021/08/06 06:32:19;;;;;;;;;;;;;;;26.50;62.21;99766.63;5052857;28;1001;-54
2021/08/06 06:34:45;;;;;;;;;;;;;;;26.47;62.21;99749.94;5052999;28;1097;-54
2021/08/06 06:37:13;;;;;;;;;;;;;;;26.47;62.30;99761.59;5052848;28;2296;-54
2021/08/06 06:39:40;;;;;;;;;;;;;;;26.48;62.24;99752.44;5052964;28;1053;-54
2021/08/06 06:42:06;;;;;;;;;;;;;;;26.47;61.85;99742.63;5055668;28;1058;-54
2021/08/06 06:44:33;;;;;;;;;;;;;;;26.53;62.47;99752.63;5056314;28;990;-54
2021/08/06 06:46:59;;;;;;;;;;;;;;;26.50;61.58;99719.69;5056700;28;1014;-54
2021/08/06 06:49:26;;;;;;;;;;;;;;;26.53;62.02;99727.41;5056330;28;1030;-54
2021/08/06 06:51:52;;;;;;;;;;;;;;;26.55;62.07;99730.75;5056236;28;1081;-54
2021/08/06 06:54:21;;;;;;;;;;;;;;;26.51;61.60;99730.31;5056589;28;1078;-54
2021/08/06 06:56:47;;;;;;;;;;;;;;;26.56;62.05;99738.69;5056010;28;1980;-54
2021/08/06 06:59:14;;;;;;;;;;;;;;;26.54;62.38;99740.75;5056263;28;998;-54
2021/08/06 07:01:40;;;;;;;;;;;;;;;26.50;61.91;99741.38;5056193;28;1399;-54
2021/08/06 07:04:06;;;;;;;;;;;;;;;26.51;61.79;99762.84;5054724;28;1313;-54
2021/08/06 07:06:33;;;;;;;;;;;;;;;26.55;62.26;99772.25;5056113;28;1089;-54
2021/08/06 07:08:59;;;;;;;;;;;;;;;26.49;61.86;99773.06;5055999;28;976;-54
2021/08/06 07:11:27;;;;;;;;;;;;;;;26.54;61.99;99778.72;5055524;28;1213;-54
2021/08/06 07:13:54;;;;;;;;;;;;;;;26.50;62.12;99777.47;5056235;28;1091;-54
2021/08/06 07:16:20;;;;;;;;;;;;;;;26.48;62.48;99774.13;5055614;28;1905;-54
2021/08/06 07:18:47;;;;;;;;;;;;;;;26.55;62.25;99785.78;5055461;28;1163;-54
2021/08/06 07:21:13;;;;;;;;;;;;;;;26.49;62.37;99786.63;5055644;28;1235;-54
2021/08/06 07:23:40;;;;;;;;;;;;;;;26.56;62.06;99797.47;5055226;28;1084;-54
2021/08/06 07:26:06;;;;;;;;;;;;;;;26.54;62.14;99783.28;5055494;28;1115;-54
2021/08/06 07:28:34;;;;;;;;;;;;;;;26.57;62.41;99816.25;5055936;28;1003;-54
2021/08/06 07:31:01;;;;;;;;;;;;;;;26.52;61.77;99783.53;5055365;28;995;-54
2021/08/06 07:33:28;;;;;;;;;;;;;;;26.52;61.84;99788.94;5055812;28;1003;-54
2021/08/06 07:35:55;;;;;;;;;;;;;;;26.52;61.88;99797.06;5055085;28;1979;-54
2021/08/06 07:38:21;;;;;;;;;;;;;;;26.55;62.27;99807.47;5055363;28;999;-54
2021/08/06 07:40:48;;;;;;;;;;;;;;;26.51;61.97;99789.16;5055759;28;1066;-54
2021/08/06 07:43:14;;;;;;;;;;;;;;;26.50;61.66;99795.59;5054870;28;1067;-54
2021/08/06 07:45:46;;;;;;;;;;;;;;;26.54;62.41;99803.13;5055039;28;1087;-54
2021/08/06 07:48:13;;;;;;;;;;;;;;;26.50;62.44;99803.72;5055179;28;1083;-54
2021/08/06 07:50:40;;;;;;;;;;;;;;;26.53;62.19;99798.72;5055115;28;949;-54
2021/08/06 07:53:06;;;;;;;;;;;;;;;26.55;62.55;99806.66;5055187;28;1023;-56
2021/08/06 07:55:33;;;;;;;;;;;;;;;26.50;62.05;99810.00;5055195;28;979;-54
2021/08/06 07:57:59;;;;;;;;;;;;;;;26.50;62.08;99804.59;5054544;28;1975;-54
2021/08/06 08:00:26;;;;;;;;;;;;;;;26.51;61.77;99802.69;5055354;28;1044;-54
2021/08/06 08:02:55;;;;;;;;;;;;;;;26.53;62.07;99812.28;5053619;28;1436;-54
2021/08/06 08:05:23;;;;;;;;;;;;;;;26.51;62.09;99811.66;5054713;28;1045;-54
2021/08/06 08:07:49;;;;;;;;;;;;;;;26.56;62.11;99821.88;5054931;28;1059;-54
2021/08/06 08:10:16;;;;;;;;;;;;;;;26.51;62.07;99817.09;5054699;28;1038;-54
2021/08/06 08:12:42;;;;;;;;;;;;;;;26.51;62.10;99827.94;5054752;28;1107;-54
2021/08/06 08:15:09;;;;;;;;;;;;;;;26.49;62.17;99835.44;5054927;28;987;-54
2021/08/06 08:17:35;;;;;;;;;;;;;;;26.53;62.36;99830.44;5054440;28;1971;-54
2021/08/06 08:20:03;;;;;;;;;;;;;;;26.50;62.11;99834.41;5054838;28;1069;-54
2021/08/06 08:22:30;;;;;;;;;;;;;;;26.50;61.99;99839.81;5054368;28;1106;-54
2021/08/06 08:24:56;;;;;;;;;;;;;;;26.50;62.24;99828.97;5054342;28;1074;-54
2021/08/06 08:27:23;;;;;;;;;;;;;;;26.51;62.27;99829.81;5054836;28;1054;-54
2021/08/06 08:29:49;;;;;;;;;;;;;;;26.54;62.36;99854.63;5054277;28;1060;-54
2021/08/06 08:32:16;;;;;;;;;;;;;;;26.50;62.11;99837.13;5054400;28;1046;-54
2021/08/06 08:34:42;;;;;;;;;;;;;;;26.55;62.45;99837.31;5054613;28;1011;-54
2021/08/06 08:37:11;;;;;;;;;;;;;;;26.51;62.54;99821.69;5053793;28;1906;-54
2021/08/06 08:39:38;;;;;;;;;;;;;;;26.50;62.43;99812.72;5054355;28;1074;-54
2021/08/06 08:42:05;;;;;;;;;;;;;;;26.51;61.75;99824.38;5054342;28;1033;-54
2021/08/06 08:44:32;;;;;;;;;;;;;;;26.56;62.44;99846.28;5053732;28;1087;-54
2021/08/06 08:46:59;;;;;;;;;;;;;;;26.52;62.49;99853.16;5054046;28;1063;-55
2021/08/06 08:49:29;;;;;;;;;;;;;;;26.50;61.90;99847.97;5053760;28;958;-54
2021/08/06 08:52:03;;;;;;;;;;;;;;;26.53;62.67;99866.50;5053897;28;1069;-54
2021/08/06 08:54:31;;;;;;;;;;;;;;;26.51;61.95;99846.91;5054529;28;1035;-54
2021/08/06 08:56:58;;;;;;;;;;;;;;;26.53;62.69;99880.06;5053818;28;1910;-54
2021/08/06 08:59:24;;;;;;;;;;;;;;;26.53;62.72;99893.63;5053828;28;1073;-55
2021/08/06 09:01:51;;;;;;;;;;;;;;;26.53;62.42;99873.81;5053755;28;1406;-54
2021/08/06 09:04:28;;;;;;;;;;;;;;;26.51;62.22;99865.06;5051833;28;1255;-54
2021/08/06 09:07:01;;;;;;;;;;;;;;;26.51;62.37;99875.91;5053723;28;1054;-54
2021/08/06 09:09:28;;;;;;;;;;;;;;;26.49;62.17;99857.13;5053707;28;1107;-54
2021/08/06 09:12:05;;;;;;;;;;;;;;;26.55;62.39;99880.69;5053271;28;1075;-54
2021/08/06 09:14:32;;;;;;;;;;;;;;;26.50;61.96;99869.66;5053731;28;1082;-54
2021/08/06 09:17:00;;;;;;;;;;;;;;;26.55;62.14;99888.81;5053449;28;1976;-54
2021/08/06 09:19:27;;;;;;;;;;;;;;;26.54;62.77;99870.06;5053355;28;1015;-55
2021/08/06 09:22:07;;;;;;;;;;;;;;;26.55;62.59;99883.41;5053981;28;1070;-54
2021/08/06 09:24:34;;;;;;;;;;;;;;;26.54;62.67;99887.19;5053340;28;1923;-54
2021/08/06 09:27:00;;;;;;;;;;;;;;;26.54;62.67;99868.19;5053043;28;1151;-54
2021/08/06 09:29:29;;;;;;;;;;;;;;;26.55;62.54;99872.56;5053613;28;962;-54
2021/08/06 09:31:56;;;;;;;;;;;;;;;26.50;62.37;99868.78;5053171;28;1208;-54
2021/08/06 09:34:24;;;;;;;;;;;;;;;26.54;62.34;99876.34;5053309;28;1076;-54
2021/08/06 09:37:01;;;;;;;;;;;;;;;26.49;62.22;99883.41;5053752;28;1906;-54
2021/08/06 09:39:31;;;;;;;;;;;;;;;26.48;62.59;99871.75;5053318;28;1058;-54
2021/08/06 09:41:57;;;;;;;;;;;;;;;26.55;62.77;99890.72;5053174;28;1067;-55
2021/08/06 09:44:25;;;;;;;;;;;;;;;26.53;62.81;99885.50;5053319;28;1186;-54
2021/08/06 09:46:53;;;;;;;;;;;;;;;26.51;62.68;99898.41;5052823;28;1122;-54
2021/08/06 09:49:20;;;;;;;;;;;;;;;26.48;62.39;99898.84;5053785;28;2047;-54
2021/08/06 09:51:47;;;;;;;;;;;;;;;26.50;61.92;99902.19;5053662;28;1007;-54
2021/08/06 09:54:18;;;;;;;;;;;;;;;26.47;62.88;99907.19;5053000;28;1054;-54
2021/08/06 09:56:45;;;;;;;;;;;;;;;26.46;62.86;99900.06;5052967;28;1906;-54
2021/08/06 09:59:11;;;;;;;;;;;;;;;26.47;62.64;99897.16;5052928;28;1316;-54
2021/08/06 10:01:38;;;;;;;;;;;;;;;26.46;62.39;99875.69;5052900;28;1444;-54
2021/08/06 10:04:15;;;;;;;;;;;;;;;26.46;62.77;99876.53;5051954;28;1301;-54
2021/08/06 10:06:56;;;;;;;;;;;;;;;26.47;62.72;99852.97;5053204;28;945;-54
2021/08/06 10:09:22;;;;;;;;;;;;;;;26.46;62.67;99846.72;5052867;28;1080;-54
2021/08/06 10:11:49;;;;;;;;;;;;;;;26.50;62.68;99856.09;5053290;28;1088;-54
2021/08/06 10:14:16;;;;;;;;;;;;;;;26.46;62.45;99854.00;5053006;28;1068;-54
2021/08/06 10:16:43;;;;;;;;;;;;;;;26.47;62.11;99853.78;5055378;28;1047;-54
2021/08/06 10:19:09;;;;;;;;;;;;;;;26.45;62.56;99855.03;5056967;28;1103;-54
2021/08/06 10:21:37;;;;;;;;;;;;;;;26.44;62.16;99845.22;5056672;28;1178;-54
2021/08/06 10:24:04;;;;;;;;;;;;;;;26.46;62.96;99822.31;5056889;28;1077;-54
2021/08/06 10:26:31;;;;;;;;;;;;;;;26.43;62.33;99811.03;5056679;28;1071;-54
2021/08/06 10:29:04;;;;;;;;;;;;;;;26.49;62.91;99807.50;5056601;28;991;-54
2021/08/06 10:31:30;;;;;;;;;;;;;;;26.46;62.77;99814.19;5056758;28;1083;-55
2021/08/06 10:34:04;;;;;;;;;;;;;;;26.44;62.34;99815.41;5056489;28;1272;-54
2021/08/06 10:48:06;;;;;;;;;;;;;;;26.45;62.78;99806.25;5090646;27;2976;-55
2021/08/06 10:50:33;;;;;;;;;;;;;;;26.43;62.69;99779.34;5081775;28;2154;-56
2021/08/06 10:53:19;;;;;;;;;;;;;;;26.44;62.17;99820.81;5079604;28;1712;-56
2021/08/06 10:55:46;;;;;;;;;;;;;;;26.42;62.81;99802.06;5082388;28;1906;-55
2021/08/06 10:58:27;;;;;;;;;;;;;;;26.44;62.69;99799.16;5079312;28;1457;-56
2021/08/06 11:00:54;;;;;;;;;;;;;;;26.46;62.99;99833.16;5082462;28;1686;-55
2021/08/06 11:03:37;;;;;;;;;;;;;;;26.42;62.41;99821.03;5081009;28;1772;-55
2021/08/06 11:06:18;;;;;;;;;;;;;;;26.44;62.37;99809.97;5082083;28;1585;-55
2021/08/06 11:08:48;;;;;;;;;;;;;;;26.44;62.99;99813.56;5080865;28;1546;-56
2021/08/06 11:11:33;;;;;;;;;;;;;;;26.47;62.89;99813.13;5073843;28;1584;-56
2021/08/06 11:14:00;;;;;;;;;;;;;;;26.44;62.26;99802.72;5081275;28;1944;-56
2021/08/06 11:16:26;;;;;;;;;;;;;;;26.42;62.48;99802.06;5081275;28;1968;-56
2021/08/06 11:18:54;;;;;;;;;;;;;;;26.46;62.05;99797.91;5076867;28;1497;-55
2021/08/06 11:21:21;;;;;;;;;;;;;;;26.44;62.28;99788.28;5078275;28;1269;-55
2021/08/06 11:23:59;;;;;;;;;;;;;;;26.45;62.22;99785.38;5076089;28;1654;-56
2021/08/06 11:26:25;;;;;;;;;;;;;;;26.45;62.17;99788.09;5080586;28;1760;-56
2021/08/06 11:28:53;;;;;;;;;;;;;;;26.46;62.20;99786.22;5079760;28;1653;-55
2021/08/06 11:31:20;;;;;;;;;;;;;;;26.47;62.37;99777.06;5079489;28;1721;-55
2021/08/06 11:33:59;;;;;;;;;;;;;;;26.45;62.59;99785.38;5079724;28;1513;-55
2021/08/06 11:36:25;;;;;;;;;;;;;;;26.45;62.92;99796.22;5077865;28;1898;-58
2021/08/06 11:38:54;;;;;;;;;;;;;;;26.46;62.33;99776.22;5077610;28;2183;-55
2021/08/06 11:41:21;;;;;;;;;;;;;;;26.47;62.97;99805.00;5079582;28;1478;-55
2021/08/06 11:43:47;;;;;;;;;;;;;;;26.45;62.72;99788.09;5076591;28;1446;-55
2021/08/06 11:46:15;;;;;;;;;;;;;;;26.48;62.25;99789.53;5078743;28;1697;-56
2021/08/06 11:48:48;;;;;;;;;;;;;;;26.47;62.38;99783.31;5067857;28;1658;-57
2021/08/06 11:51:16;;;;;;;;;;;;;;;26.48;62.68;99774.13;5058943;28;1274;-56
2021/08/06 11:53:43;;;;;;;;;;;;;;;26.47;62.26;99758.91;5063032;28;2179;-55
2021/08/06 11:56:14;;;;;;;;;;;;;;;26.48;62.66;99760.59;5066569;28;1906;-56
2021/08/06 11:58:41;;;;;;;;;;;;;;;26.44;62.28;99743.06;5064063;28;2673;-55
2021/08/06 12:01:09;;;;;;;;;;;;;;;26.50;62.24;99736.81;5064266;28;1447;-56
2021/08/06 12:03:42;;;;;;;;;;;;;;;26.50;62.31;99727.81;5065381;28;1536;-55
2021/08/06 12:06:08;;;;;;;;;;;;;;;26.50;62.24;99739.50;5066758;28;1487;-55
2021/08/06 12:08:36;;;;;;;;;;;;;;;26.51;62.86;99735.75;5065771;28;1467;-56
2021/08/06 12:11:09;;;;;;;;;;;;;;;26.52;62.30;99742.84;5062718;28;1490;-55
2021/08/06 12:13:37;;;;;;;;;;;;;;;26.55;62.20;99726.16;5061363;28;1722;-55
2021/08/06 12:16:06;;;;;;;;;;;;;;;26.54;62.22;99721.78;5065227;28;1995;-56
2021/08/06 12:18:33;;;;;;;;;;;;;;;26.53;62.65;99708.44;5057907;28;1430;-56
2021/08/06 12:21:00;;;;;;;;;;;;;;;26.56;61.92;99716.13;5055478;28;1441;-56
2021/08/06 12:23:27;;;;;;;;;;;;;;;26.49;62.76;99699.88;5067016;28;1663;-55
2021/08/06 12:26:08;;;;;;;;;;;;;;;26.54;62.53;99702.81;5061118;28;1828;-55
2021/08/06 12:28:35;;;;;;;;;;;;;;;26.57;62.42;99702.38;5065439;28;1548;-55
2021/08/06 12:31:16;;;;;;;;;;;;;;;26.55;62.67;99699.03;5062611;28;1497;-55
2021/08/06 12:33:42;;;;;;;;;;;;;;;26.52;62.02;99699.47;5063619;28;1465;-56
2021/08/06 12:36:13;;;;;;;;;;;;;;;26.56;62.39;99710.69;5056855;28;1906;-56
2021/08/06 12:38:40;;;;;;;;;;;;;;;26.51;62.49;99703.22;5061348;28;2243;-56
2021/08/06 12:41:08;;;;;;;;;;;;;;;26.59;62.33;99722.00;5065819;28;1549;-55
2021/08/06 12:43:35;;;;;;;;;;;;;;;26.54;62.12;99708.22;5065311;28;1701;-57
2021/08/06 12:46:11;;;;;;;;;;;;;;;26.58;62.61;99711.34;5062318;28;1500;-55
2021/08/06 12:49:01;;;;;;;;;;;;;;;26.56;62.16;99695.28;5062976;28;1860;-55
2021/08/06 12:51:28;;;;;;;;;;;;;;;26.57;62.33;99685.28;5059365;28;1873;-57
2021/08/06 12:53:54;;;;;;;;;;;;;;;26.57;62.57;99686.09;5064892;28;1309;-57
2021/08/06 12:56:23;;;;;;;;;;;;;;;26.58;62.79;99678.81;5064306;28;1972;-56
2021/08/06 12:59:11;;;;;;;;;;;;;;;26.55;62.24;99671.09;5063624;28;1790;-55
2021/08/06 13:01:38;;;;;;;;;;;;;;;26.56;62.01;99673.59;5063239;28;1813;-57
2021/08/06 13:04:04;;;;;;;;;;;;;;;26.61;62.51;99674.88;5064886;28;1844;-56
2021/08/06 13:06:45;;;;;;;;;;;;;;;26.55;62.38;99666.50;5062720;28;1593;-56
2021/08/06 13:09:11;;;;;;;;;;;;;;;26.58;62.92;99654.41;5062496;28;1764;-55
2021/08/06 13:11:39;;;;;;;;;;;;;;;26.57;62.55;99650.84;5060352;28;1613;-57
2021/08/06 13:14:06;;;;;;;;;;;;;;;26.56;62.89;99641.06;5065443;28;1527;-55
2021/08/06 13:16:33;;;;;;;;;;;;;;;26.58;62.55;99639.00;5063083;28;1902;-55